Date,TemperatureHighF,TemperatureAvgF,TemperatureLowF,DewpointHighF,DewpointAvgF,DewpointLowF,HumidityHigh,HumidityAvg,HumidityLow,PressureMaxIn,PressureMinIn,WindSpeedMaxMPH,WindSpeedAvgMPH,GustSpeedMaxMPH,PrecipitationSumIn
2013-1-1,39.4,35.8,26.6,30.9,27.5,16.5,78,72,63,30.12,29.95,12,2,14,0.00
2013-1-2,31.3,26.2,21.7,18.7,16.3,14.4,74,66,55,30.30,30.09,16,2,16,0.00
2013-1-3,32.0,26.3,18.7,21.0,17.2,14.5,86,69,53,30.31,30.19,8,1,11,0.00
2013-1-4,36.3,32.6,27.3,23.9,22.5,19.9,74,66,59,30.21,30.09,18,3,20,0.00
2013-1-5,39.9,32.2,25.9,25.3,22.4,20.1,86,68,54,30.43,30.15,13,2,14,0.00
2013-1-6,45.9,36.8,29.3,33.1,28.9,24.3,94,74,51,30.33,30.08,12,1,12,0.00
2013-1-7,44.4,36.5,22.3,32.2,27.2,20.3,94,70,49,30.50,30.17,13,2,14,0.00
2013-1-8,47.8,31.6,19.0,34.2,26.4,17.8,96,83,57,30.51,30.44,9,0,11,0.00
2013-1-9,47.8,37.1,23.4,39.0,32.4,22.5,97,84,67,30.49,30.25,11,1,11,0.00
2013-1-10,48.4,40.9,32.2,33.3,28.4,26.4,82,62,45,30.63,30.38,10,2,13,0.00
2013-1-11,43.5,38.3,29.3,42.4,34.1,25.7,98,85,73,30.61,30.17,7,1,9,0.44
2013-1-12,46.9,43.5,41.2,45.1,42.8,40.6,98,97,93,30.26,30.17,4,0,5,0.14
2013-1-13,47.7,44.9,41.7,47.5,44.6,41.2,99,99,98,30.24,30.08,6,0,6,0.01
2013-1-14,54.1,48.6,38.1,52.7,44.9,35.4,99,88,61,30.38,30.00,8,1,9,0.10
2013-1-15,38.1,35.8,33.1,35.8,30.9,28.6,94,83,74,30.44,30.29,9,1,9,0.18
2013-1-16,36.0,33.1,31.6,34.7,32.1,30.6,98,96,92,30.29,29.89,9,1,11,0.89
2013-1-17,41.2,37.4,34.2,34.7,31.0,28.2,95,78,63,30.19,30.02,14,2,14,0.01
2013-1-18,34.2,27.8,22.6,29.3,16.4,8.2,86,63,42,30.58,30.09,19,2,19,0.00
2013-1-19,52.2,38.5,24.1,31.1,26.0,14.4,80,62,41,30.50,30.01,12,3,17,0.00
2013-1-20,52.7,40.8,28.0,32.7,24.8,13.1,79,55,27,30.15,29.82,23,4,25,0.00
2013-1-21,30.7,26.2,18.3,21.0,14.2,10.6,83,61,48,30.19,29.96,10,1,15,0.00
2013-1-22,23.7,16.6,11.1,11.5,0.7,-4.9,59,49,38,30.35,29.96,21,6,24,0.00
2013-1-23,17.8,11.8,6.3,5.0,0.9,-3.6,88,62,48,30.38,30.28,15,3,17,0.00
2013-1-24,23.7,15.8,7.5,7.9,4.1,-1.1,89,62,35,30.56,30.23,17,2,19,0.00
2013-1-25,21.4,14.7,4.3,14.7,5.2,-0.9,91,67,46,30.56,30.18,11,1,12,0.00
2013-1-26,26.2,17.4,2.5,12.2,9.3,0.0,93,72,50,30.51,30.17,13,2,15,0.00
2013-1-27,33.1,19.3,4.5,17.4,11.7,1.9,91,74,48,30.67,30.50,12,1,14,0.00
2013-1-28,34.3,28.8,16.2,33.6,26.5,13.3,97,91,79,30.61,30.11,7,1,9,0.17
2013-1-29,51.3,42.9,33.6,46.4,40.6,32.9,97,91,80,30.24,30.11,6,1,7,0.03
2013-1-30,65.8,52.4,40.6,60.3,50.8,40.1,99,95,81,30.13,29.41,20,2,20,0.32
2013-1-31,61.9,41.9,26.8,59.5,30.9,12.7,98,66,45,29.91,29.14,31,8,36,1.39
2013-2-1,28.8,25.6,20.1,17.6,10.6,5.5,66,53,39,30.37,29.90,24,5,25,0.00
2013-2-2,27.3,21.5,14.4,20.8,10.9,5.4,92,64,43,30.42,30.13,13,2,16,0.00
2013-2-3,28.9,23.9,17.8,23.7,20.3,16.3,96,86,71,30.13,29.91,11,1,11,0.00
2013-2-4,28.0,23.8,18.9,21.4,12.8,9.5,86,63,48,30.12,29.94,16,4,19,0.01
2013-2-5,30.7,28.1,25.0,28.2,25.3,21.4,94,89,85,30.06,29.98,5,0,6,0.00
2013-2-6,37.9,30.6,23.2,28.2,23.2,15.1,97,75,56,30.44,30.02,14,2,17,0.01
2013-2-7,32.7,26.7,18.9,22.5,16.5,12.6,84,66,50,30.58,30.38,11,1,12,0.00
2013-2-8,34.2,32.0,29.7,32.2,29.3,22.5,97,90,74,30.38,29.78,17,4,20,0.02
2013-2-9,31.5,26.3,18.7,30.6,17.7,9.5,97,71,49,30.48,29.87,19,4,23,0.00
2013-2-10,39.6,26.1,12.0,21.6,13.3,7.9,85,60,35,30.59,30.40,4,1,6,0.09
2013-2-11,47.5,37.6,29.8,46.8,35.5,21.4,98,92,68,30.41,29.75,9,1,12,0.09
2013-2-12,43.2,38.6,27.0,38.8,26.8,22.6,95,63,52,30.08,29.85,25,4,25,0.00
2013-2-13,42.4,32.5,21.2,31.5,26.3,19.6,96,79,57,30.06,29.77,9,1,9,0.00
2013-2-14,44.2,34.3,25.9,32.7,29.3,24.1,97,83,53,30.10,29.81,11,1,11,0.13
2013-2-15,55.0,39.7,25.3,36.3,30.7,23.4,97,73,45,30.11,30.00,14,2,14,0.05
2013-2-16,35.4,32.6,28.2,32.2,25.9,13.3,96,77,52,30.08,29.86,13,2,15,0.11
2013-2-17,29.3,25.3,18.5,13.6,7.9,1.2,54,47,39,30.17,29.83,24,6,31,0.00
2013-2-18,34.5,24.5,16.7,15.4,8.7,2.8,66,51,38,30.41,30.16,17,4,20,0.00
2013-2-19,43.5,34.0,22.5,41.0,28.3,14.2,95,80,55,30.29,29.80,15,2,18,0.23
2013-2-20,35.1,27.9,23.5,26.2,14.9,10.9,73,58,49,30.14,29.86,22,7,24,0.01
2013-2-21,35.1,27.2,22.3,18.0,15.0,11.7,72,60,48,30.40,30.12,21,5,23,0.00
2013-2-22,35.8,29.1,20.7,29.3,21.6,14.2,86,74,63,30.51,30.34,9,2,11,0.00
2013-2-23,42.4,37.3,31.6,41.7,36.3,28.8,98,96,85,30.35,29.90,12,1,13,0.11
2013-2-24,45.3,37.1,30.6,39.2,30.7,21.7,97,79,60,30.12,29.87,21,3,22,0.03
2013-2-25,44.1,34.4,25.2,29.3,25.4,21.4,92,70,53,30.33,30.12,13,2,14,0.00
2013-2-26,44.1,33.6,22.3,34.7,28.9,20.8,96,84,62,30.35,29.90,20,3,22,0.30
2013-2-27,49.5,42.3,36.0,45.0,39.1,34.7,97,89,73,29.90,29.60,20,4,24,0.59
2013-2-28,44.8,40.2,33.8,36.9,33.0,27.1,92,76,53,29.74,29.66,13,2,15,0.00
2013-3-1,43.7,37.4,31.6,31.3,29.3,26.4,91,73,54,29.91,29.72,14,3,14,0.00
2013-3-2,38.8,33.5,28.9,26.8,23.7,20.5,74,67,56,29.91,29.82,13,4,15,0.00
2013-3-3,35.8,30.3,25.2,21.7,19.5,17.8,74,64,52,29.90,29.81,15,4,19,0.00
2013-3-4,39.4,32.5,27.7,23.5,20.1,16.9,68,60,48,30.04,29.90,18,5,21,0.00
2013-3-5,47.1,36.9,30.0,28.6,25.5,22.3,81,64,47,30.13,30.04,14,2,14,0.00
2013-3-6,40.5,36.9,32.4,35.4,31.9,27.3,91,82,71,30.04,29.87,25,6,29,0.07
2013-3-7,44.4,38.1,33.6,31.8,28.7,25.7,86,69,53,30.19,30.02,17,4,20,0.00
2013-3-8,42.6,34.3,28.8,35.8,29.3,25.5,96,83,65,30.32,30.13,13,3,14,0.13
2013-3-9,59.4,42.1,30.2,28.6,22.9,16.9,70,50,21,30.40,30.29,11,2,12,0.00
2013-3-10,55.0,40.3,26.1,37.2,29.3,19.2,91,67,42,30.46,30.34,10,2,12,0.00
2013-3-11,58.3,45.3,35.1,48.6,40.7,32.7,98,85,51,30.40,30.14,11,2,12,0.00
2013-3-12,56.5,50.9,41.4,55.4,48.2,35.1,97,90,77,30.14,29.75,15,4,18,1.21
2013-3-13,48.6,39.5,29.7,35.2,29.3,23.9,91,68,45,30.03,29.90,21,3,25,0.02
2013-3-14,40.1,33.7,28.6,24.1,16.6,11.5,74,50,35,30.09,29.99,27,6,27,0.00
2013-3-15,49.3,38.2,25.0,32.7,22.3,12.6,65,53,44,30.11,29.82,20,3,20,0.00
2013-3-16,44.8,35.0,31.3,32.2,28.9,23.4,95,80,61,30.02,29.85,8,1,10,0.00
2013-3-17,38.5,31.4,26.2,30.4,23.1,18.7,96,73,51,30.40,30.01,10,1,14,0.11
2013-3-18,36.7,30.6,24.6,33.3,23.1,12.4,96,75,55,30.47,30.01,14,3,19,0.17
2013-3-19,49.3,38.6,33.4,39.0,31.7,19.0,97,79,41,30.02,29.79,19,3,24,0.75
2013-3-20,45.9,37.0,29.3,24.3,19.8,17.4,66,50,33,30.01,29.87,18,4,21,0.00
2013-3-21,37.2,32.0,27.7,28.6,19.4,11.3,93,62,36,29.92,29.75,16,3,16,0.00
2013-3-22,39.9,32.3,25.5,24.1,19.9,13.1,78,60,46,30.01,29.86,17,4,21,0.00
2013-3-23,45.1,36.6,29.1,23.9,21.3,19.4,69,54,39,30.05,29.96,15,3,20,0.00
2013-3-24,46.0,36.9,22.8,27.1,22.2,19.2,88,57,37,30.07,29.77,11,1,12,0.00
2013-3-25,36.7,34.6,32.4,33.8,30.9,26.4,96,87,67,29.78,29.56,15,2,18,0.29
2013-3-26,50.2,40.7,33.6,34.9,31.7,26.1,96,73,41,29.99,29.72,14,3,14,0.12
2013-3-27,50.7,40.9,28.6,33.1,29.7,25.2,93,66,40,30.12,29.99,16,3,21,0.00
2013-3-28,47.5,41.0,33.4,34.7,29.7,27.5,85,65,50,30.24,30.08,15,3,16,0.00
2013-3-29,52.2,43.3,27.9,32.7,29.5,24.6,89,59,41,30.27,30.18,12,2,16,0.00
2013-3-30,57.6,41.8,25.0,32.9,26.8,22.6,96,61,28,30.29,30.17,11,1,14,0.00
2013-3-31,55.8,42.8,28.9,46.2,35.3,25.3,98,77,43,30.22,29.79,15,2,18,0.30
2013-4-1,60.4,47.4,35.4,45.9,36.4,15.1,98,69,36,30.02,29.74,24,4,25,0.02
2013-4-2,43.0,36.2,28.8,17.8,14.6,11.7,62,42,29,30.20,30.02,23,5,23,0.00
2013-4-3,44.4,36.5,27.3,18.9,14.9,10.9,60,42,28,30.41,30.20,18,4,23,0.00
2013-4-4,52.3,39.0,24.3,28.4,20.3,12.9,73,48,31,30.50,30.17,8,2,11,0.00
2013-4-5,61.5,48.4,38.1,33.4,27.1,19.4,78,47,22,30.18,29.83,14,2,16,0.00
2013-4-6,53.1,41.4,31.5,29.1,20.1,14.2,67,44,24,30.40,30.11,11,2,15,0.00
2013-4-7,63.0,49.4,35.8,44.4,36.1,28.9,79,62,45,30.39,30.06,13,2,16,0.00
2013-4-8,76.5,61.5,43.3,51.1,46.3,40.5,91,61,36,30.16,30.03,8,1,9,0.00
2013-4-9,82.0,70.2,59.2,54.5,50.2,42.6,76,52,26,30.07,29.96,20,3,23,0.00
2013-4-10,86.2,70.1,57.7,60.4,56.4,51.8,98,65,40,30.00,29.83,16,2,21,0.50
2013-4-11,61.2,57.0,46.6,60.3,54.1,43.2,99,90,74,30.05,29.82,15,2,17,0.51
2013-4-12,46.6,43.1,41.4,43.2,41.5,40.1,98,94,84,30.03,29.78,20,5,22,0.65
2013-4-13,58.8,48.1,35.1,45.0,37.9,34.3,99,71,43,30.06,29.83,16,2,16,0.11
2013-4-14,61.0,49.6,36.0,40.3,35.0,26.8,95,61,35,30.27,30.05,19,2,22,0.00
2013-4-15,60.1,51.0,43.5,43.5,37.0,31.6,75,59,50,30.44,30.27,10,3,13,0.00
2013-4-16,70.9,58.6,43.5,57.7,50.2,40.8,93,75,60,30.43,30.19,13,2,14,0.00
2013-4-17,72.1,60.9,52.2,56.5,46.0,34.3,94,63,26,30.35,30.18,13,1,13,0.00
2013-4-18,59.7,54.2,47.8,55.6,49.2,41.0,96,83,73,30.38,30.14,11,2,13,0.01
2013-4-19,77.5,65.4,51.8,66.2,61.0,46.8,96,86,65,30.14,29.68,17,3,22,0.77
2013-4-20,55.6,49.6,43.3,48.4,34.3,25.5,91,58,37,30.40,29.78,21,5,22,0.97
2013-4-21,55.6,43.1,30.4,31.3,25.6,21.2,74,51,33,30.70,30.40,12,2,13,0.00
2013-4-22,51.6,42.9,30.0,37.6,33.0,28.0,93,70,46,30.72,30.55,15,3,19,0.00
2013-4-23,49.6,43.7,38.8,43.2,37.9,33.1,95,80,72,30.55,30.22,14,2,15,0.00
2013-4-24,71.4,55.4,34.0,56.5,47.5,32.9,98,77,56,30.22,29.88,13,1,15,0.00
2013-4-25,64.8,52.1,39.9,57.0,33.5,25.3,81,52,25,30.36,29.95,22,3,26,0.00
2013-4-26,64.2,50.0,35.2,38.1,33.6,27.7,90,58,26,30.51,30.35,14,1,14,0.00
2013-4-27,70.5,53.6,34.3,39.6,34.7,31.3,90,53,27,30.53,30.35,7,1,10,0.00
2013-4-28,70.3,56.7,38.1,45.1,38.3,29.3,91,54,33,30.39,30.25,10,1,12,0.00
2013-4-29,54.1,52.5,50.4,53.1,49.8,41.0,97,91,61,30.30,30.21,10,2,12,0.58
2013-4-30,67.1,56.2,41.9,52.3,44.9,32.5,98,70,34,30.41,30.26,12,2,14,0.08
2013-5-1,66.9,52.5,35.4,44.4,37.6,29.8,94,62,27,30.55,30.40,12,2,14,0.00
2013-5-2,72.0,55.2,35.8,48.7,42.6,34.7,98,67,34,30.55,30.40,10,1,11,0.00
2013-5-3,64.6,54.3,42.6,43.0,40.5,34.9,90,62,36,30.51,30.41,14,2,16,0.00
2013-5-4,69.1,53.6,37.0,47.7,42.2,36.3,98,69,39,30.45,30.28,11,2,17,0.00
2013-5-5,64.6,51.1,37.9,45.5,41.4,36.1,96,72,45,30.36,30.27,13,2,13,0.00
2013-5-6,68.2,54.1,41.2,55.2,48.6,38.5,96,83,60,30.33,30.21,9,1,12,0.00
2013-5-7,70.7,59.7,50.2,61.9,55.4,49.1,97,86,67,30.23,30.13,9,2,13,0.04
2013-5-8,71.4,60.6,56.5,62.8,58.4,55.6,98,93,67,30.13,29.99,14,1,18,0.94
2013-5-9,70.7,60.0,54.0,58.8,55.6,52.9,98,87,60,30.05,29.97,9,0,9,0.34
2013-5-10,81.9,66.8,48.7,62.1,55.7,48.2,98,72,39,30.09,29.96,12,0,12,0.35
2013-5-11,73.6,64.0,58.1,66.4,61.7,56.8,98,93,74,29.99,29.78,10,0,10,1.19
2013-5-12,63.5,57.4,45.7,56.8,41.6,27.3,93,59,31,30.06,29.77,18,2,21,0.02
2013-5-13,54.1,46.1,34.3,35.6,31.1,24.4,96,59,32,30.22,30.05,15,2,17,0.00
2013-5-14,62.4,47.2,30.9,37.8,31.3,24.6,97,60,26,30.25,30.12,12,1,14,0.00
2013-5-15,73.2,59.3,41.2,59.2,50.2,36.9,89,73,57,30.16,29.78,9,1,11,0.01
2013-5-16,80.8,66.0,53.4,65.7,58.7,52.3,98,80,51,29.93,29.80,7,0,10,0.07
2013-5-17,74.8,61.9,46.6,52.5,45.5,40.8,90,58,31,30.27,29.93,9,1,10,0.00
2013-5-18,64.6,57.5,48.0,56.5,51.8,45.1,93,82,66,30.36,30.27,8,1,10,0.01
2013-5-19,60.3,57.6,55.0,59.2,56.7,54.1,98,97,93,30.36,30.23,9,2,11,0.19
2013-5-20,80.2,66.7,56.3,69.8,62.9,55.8,99,89,67,30.25,30.04,6,0,6,0.01
2013-5-21,85.6,73.1,59.0,72.7,67.2,58.5,99,83,62,30.06,29.92,6,0,7,0.00
2013-5-22,86.7,74.8,63.7,74.3,69.2,62.8,98,84,58,29.99,29.88,8,0,9,0.00
2013-5-23,79.3,70.8,62.2,71.2,68.1,60.4,97,91,69,29.96,29.82,7,0,10,1.18
2013-5-24,63.3,53.5,44.8,62.8,50.5,39.0,99,90,74,30.09,29.77,13,1,14,1.02
2013-5-25,60.1,51.9,44.1,41.2,38.4,33.4,89,62,41,30.14,30.05,16,2,16,0.01
2013-5-26,69.3,56.4,44.6,42.1,38.4,35.1,85,53,29,30.30,30.10,16,2,17,0.00
2013-5-27,71.8,56.8,36.1,47.5,41.4,35.2,98,62,33,30.35,30.23,10,1,12,0.00
2013-5-28,61.9,55.6,46.8,60.1,53.5,45.3,98,93,73,30.30,30.19,6,0,9,0.34
2013-5-29,88.2,71.8,56.8,71.2,63.5,56.3,99,79,47,30.20,30.09,9,1,11,0.01
2013-5-30,90.9,79.3,64.9,71.1,66.5,63.3,98,68,41,30.22,30.14,7,0,9,0.00
2013-5-31,91.9,78.3,63.3,72.3,65.3,56.7,98,68,32,30.20,30.07,7,0,7,0.00
2013-6-1,90.3,78.1,63.3,71.8,67.8,62.4,98,73,49,30.10,29.96,6,1,8,0.00
2013-6-2,85.8,78.4,71.1,72.9,69.3,66.0,92,74,61,29.98,29.85,7,1,10,0.01
2013-6-3,81.7,71.9,64.2,70.0,66.3,57.6,98,84,59,29.96,29.87,7,0,9,0.48
2013-6-4,76.5,64.1,53.4,57.7,48.0,43.3,84,58,32,30.19,29.96,11,1,15,0.00
2013-6-5,77.5,63.5,45.9,54.9,48.4,41.7,91,61,38,30.29,30.16,7,1,9,0.00
2013-6-6,73.8,61.2,50.4,62.2,55.8,48.9,97,84,49,30.21,30.04,9,1,13,0.18
2013-6-7,63.7,61.5,59.7,62.8,60.7,58.6,98,97,96,30.04,29.68,14,1,20,3.59
2013-6-8,77.4,66.7,58.3,66.0,61.8,57.4,98,85,65,30.14,29.68,9,0,11,0.36
2013-6-9,83.7,69.5,53.1,65.1,59.8,52.2,99,74,46,30.25,30.15,3,0,4,0.00
2013-6-10,71.1,66.7,63.9,70.5,65.5,61.7,99,96,92,30.21,29.84,7,0,8,1.88
2013-6-11,79.5,72.9,65.8,69.6,66.2,61.2,98,81,65,29.84,29.74,9,0,14,0.20
2013-6-12,81.3,71.5,61.9,63.3,60.1,57.0,90,69,46,29.91,29.82,11,0,13,0.00
2013-6-13,74.1,64.6,57.6,69.3,61.3,56.1,96,89,78,29.91,29.48,10,0,10,0.45
2013-6-14,75.9,61.5,53.6,61.0,55.3,50.9,97,82,56,30.00,29.60,10,1,11,0.23
2013-6-15,80.2,67.6,53.2,61.5,56.8,52.0,98,71,41,30.11,29.99,7,0,10,0.00
2013-6-16,82.2,68.6,54.9,67.1,60.7,53.8,98,78,46,30.08,29.88,11,1,13,0.00
2013-6-17,85.3,72.9,61.5,72.7,66.1,60.6,98,81,54,30.00,29.91,12,0,12,0.06
2013-6-18,80.4,68.9,62.1,71.4,66.3,61.2,98,92,71,29.98,29.87,5,0,6,0.20
2013-6-19,79.0,66.1,56.7,61.3,55.3,49.6,97,72,41,30.23,29.95,8,1,10,0.01
2013-6-20,80.2,67.2,50.7,62.6,56.6,49.8,98,72,48,30.35,30.23,6,0,7,0.00
2013-6-21,83.5,69.9,52.7,61.0,56.5,51.1,97,65,42,30.38,30.30,5,0,8,0.00
2013-6-22,85.6,71.7,53.8,68.4,62.1,52.3,98,74,51,30.33,30.18,6,0,7,0.00
2013-6-23,87.3,74.5,60.4,73.8,68.0,59.2,98,81,57,30.27,30.12,8,0,8,0.00
2013-6-24,90.9,77.8,67.5,73.9,69.6,62.4,98,78,51,30.16,30.04,9,0,9,0.00
2013-6-25,89.4,76.6,63.5,75.7,68.6,62.4,98,78,52,30.07,29.90,8,0,10,0.02
2013-6-26,88.5,76.2,67.3,77.4,68.7,63.1,97,79,56,29.94,29.84,7,0,8,0.12
2013-6-27,88.0,76.5,67.5,74.3,70.8,66.9,98,84,60,29.89,29.60,11,1,15,0.57
2013-6-28,85.8,75.3,67.1,72.1,69.6,66.0,98,84,60,29.64,29.54,5,0,9,0.16
2013-6-29,86.0,74.4,65.3,70.9,66.7,63.0,99,79,47,29.77,29.55,5,0,7,0.07
2013-6-30,82.8,73.5,65.5,75.9,70.4,63.9,97,90,77,29.96,29.77,6,0,13,0.62
2013-7-1,77.7,74.2,69.8,74.7,72.3,69.3,98,94,87,30.09,29.94,8,0,13,1.85
2013-7-2,84.9,76.8,72.7,75.0,72.5,70.0,96,87,68,30.25,30.09,7,0,8,0.01
2013-7-3,86.2,76.8,70.2,76.6,72.4,68.4,96,87,71,30.31,30.23,4,0,6,0.00
2013-7-4,87.8,79.2,71.4,76.5,73.3,69.8,98,83,63,30.32,30.23,6,0,10,0.00
2013-7-5,90.0,80.9,70.2,76.6,72.8,68.9,98,78,56,30.29,30.17,6,0,8,0.00
2013-7-6,92.1,82.6,72.3,76.3,73.9,71.1,97,76,55,30.22,30.10,6,0,7,0.00
2013-7-7,90.9,80.8,70.2,77.9,73.3,68.9,97,79,59,30.15,30.02,10,0,13,0.03
2013-7-8,85.5,75.2,67.8,73.8,69.3,66.7,97,83,60,30.14,30.06,8,0,9,0.04
2013-7-9,86.7,76.6,66.7,75.4,70.9,65.8,98,84,65,30.14,30.06,5,0,9,0.00
2013-7-10,86.9,78.3,70.5,76.3,73.1,69.4,98,85,65,30.09,29.88,9,0,9,0.04
2013-7-11,84.0,77.1,72.7,74.1,70.8,63.7,96,82,63,29.99,29.87,5,0,8,0.00
2013-7-12,74.7,71.4,68.2,70.0,66.0,61.7,97,84,69,30.12,29.99,13,1,13,0.94
2013-7-13,85.6,74.4,68.2,76.5,72.0,67.3,98,93,71,30.36,30.12,7,0,10,0.40
2013-7-14,90.7,78.8,72.0,76.5,73.4,71.1,99,85,57,30.42,30.32,5,0,5,0.02
2013-7-15,94.3,81.9,69.1,79.0,73.9,67.8,98,79,54,30.34,30.21,5,0,6,0.00
2013-7-16,91.8,81.5,72.1,76.8,71.8,68.9,96,75,51,30.29,30.21,7,1,8,0.00
2013-7-17,96.3,82.7,72.0,76.1,71.7,68.0,96,72,43,30.27,30.14,6,0,7,0.00
2013-7-18,96.1,84.3,72.9,78.6,74.9,71.1,95,76,51,30.16,30.04,4,0,6,0.00
2013-7-19,94.5,85.6,76.1,81.1,77.5,73.0,97,78,57,30.06,29.87,7,0,9,0.00
2013-7-20,90.0,81.4,74.7,76.3,72.6,69.6,91,75,59,29.91,29.82,7,0,10,0.00
2013-7-21,87.8,77.4,70.7,74.8,71.6,69.3,97,83,61,30.02,29.90,7,0,8,0.00
2013-7-22,84.7,75.1,70.0,77.2,72.1,68.2,97,91,72,30.02,29.85,8,0,8,0.22
2013-7-23,85.5,76.1,69.8,76.8,71.8,68.5,98,88,66,29.85,29.65,6,0,6,1.04
2013-7-24,80.2,72.2,63.3,69.3,64.8,54.1,98,79,57,30.01,29.70,7,0,10,0.01
2013-7-25,69.1,63.7,58.3,60.3,56.5,52.5,88,77,69,30.12,30.00,11,1,11,0.00
2013-7-26,82.6,70.1,59.7,63.5,60.2,57.7,94,73,47,30.13,30.08,7,0,9,0.00
2013-7-27,84.6,71.7,56.8,70.5,63.1,55.9,98,77,53,30.12,29.99,10,0,11,0.00
2013-7-28,80.2,71.0,65.1,74.3,68.0,62.4,97,91,80,30.05,29.94,6,0,8,0.25
2013-7-29,81.0,71.1,59.2,66.0,61.7,55.8,99,75,44,30.19,30.02,6,0,8,0.04
2013-7-30,79.2,67.5,54.3,62.6,58.8,53.4,99,76,50,30.27,30.19,5,0,7,0.00
2013-7-31,83.5,70.2,55.2,66.2,61.3,54.7,98,76,47,30.24,30.10,5,0,6,0.00
2013-8-1,71.8,67.6,64.2,70.3,66.2,63.0,98,95,90,30.10,29.89,7,0,8,0.97
2013-8-2,82.0,72.7,61.5,68.7,65.2,61.2,99,80,52,30.01,29.89,6,0,8,0.01
2013-8-3,76.6,68.0,61.2,68.5,64.8,60.1,97,90,74,30.01,29.94,4,0,7,0.05
2013-8-4,79.0,68.4,60.1,62.6,59.4,55.2,99,76,47,30.08,29.94,9,1,11,0.00
2013-8-5,76.5,64.9,52.9,59.4,54.8,49.8,96,73,46,30.17,30.08,7,0,9,0.00
2013-8-6,80.1,66.1,52.2,65.8,58.7,51.3,98,79,48,30.19,30.11,5,0,7,0.00
2013-8-7,76.3,69.3,62.1,69.3,66.4,60.3,97,91,77,30.19,30.12,9,0,9,0.05
2013-8-8,84.6,75.5,68.2,76.1,71.4,67.3,98,88,70,30.13,30.04,7,0,13,0.18
2013-8-9,83.5,76.9,73.0,77.4,73.8,71.2,97,90,77,30.07,29.89,6,0,8,0.04
2013-8-10,82.8,74.5,64.8,73.2,66.8,63.0,97,78,57,30.12,29.95,7,0,7,0.00
2013-8-11,84.0,71.4,57.7,68.7,62.8,55.6,98,77,54,30.21,30.08,3,0,5,0.00
2013-8-12,83.7,72.9,66.6,70.2,67.0,63.5,97,83,53,30.10,29.99,6,0,7,0.10
2013-8-13,80.6,71.4,64.6,71.4,67.9,63.7,98,89,70,29.99,29.77,6,0,9,1.70
2013-8-14,72.9,64.4,53.2,66.7,54.5,48.9,96,72,53,30.15,29.84,8,1,20,0.00
2013-8-15,77.2,62.1,47.8,58.6,52.4,47.3,99,75,42,30.24,30.14,8,0,9,0.00
2013-8-16,78.6,64.7,49.3,63.0,55.0,48.7,99,75,43,30.28,30.21,5,0,6,0.00
2013-8-17,81.0,66.9,52.5,65.1,57.5,51.8,99,75,45,30.35,30.28,5,0,5,0.00
2013-8-18,74.1,66.2,60.3,65.5,61.7,57.9,97,86,63,30.33,30.22,5,0,6,0.02
2013-8-19,74.8,66.7,59.0,68.2,63.1,58.3,99,89,71,30.23,30.12,4,0,4,0.02
2013-8-20,85.8,72.5,58.6,71.6,65.4,58.1,99,81,53,30.22,30.14,3,0,4,0.02
2013-8-21,87.4,73.8,58.8,71.2,65.1,58.3,99,78,45,30.26,30.13,4,0,6,0.00
2013-8-22,81.5,74.4,70.0,74.7,71.3,67.3,97,90,74,30.14,29.96,6,0,7,0.11
2013-8-23,77.4,70.1,62.2,67.6,63.4,58.3,98,80,57,30.18,29.97,6,0,10,0.00
2013-8-24,78.4,67.3,54.1,59.2,55.3,49.3,95,68,38,30.43,30.17,8,1,9,0.00
2013-8-25,79.0,64.7,49.3,62.1,55.8,48.4,99,76,46,30.49,30.33,4,0,5,0.00
2013-8-26,83.3,71.3,59.5,68.7,63.0,56.1,92,76,57,30.33,30.01,8,0,11,0.03
2013-8-27,86.5,75.4,67.6,70.9,68.2,66.0,97,80,56,30.01,29.92,7,0,10,0.08
2013-8-28,75.0,69.7,65.7,71.6,68.8,64.9,99,97,88,29.97,29.90,3,0,5,1.92
2013-8-29,79.5,72.5,67.5,72.5,69.4,65.5,99,91,74,30.10,29.95,6,0,7,0.00
2013-8-30,81.7,73.1,66.0,74.1,69.1,64.8,97,88,73,30.10,29.94,4,0,5,0.00
2013-8-31,85.3,76.5,68.7,76.5,72.2,67.5,97,87,72,29.95,29.85,6,0,6,0.00
2013-9-1,87.8,76.1,68.7,77.7,72.0,67.3,98,88,63,29.95,29.83,11,0,14,0.75
2013-9-2,80.1,73.2,69.6,75.7,71.5,68.7,98,95,83,29.87,29.77,5,0,7,1.87
2013-9-3,78.4,71.7,63.7,70.5,64.8,57.6,99,81,54,29.98,29.78,7,0,9,0.00
2013-9-4,77.7,66.6,56.1,62.4,58.9,55.0,98,78,55,30.11,29.98,7,0,8,0.00
2013-9-5,75.6,65.1,54.1,64.2,56.0,46.4,97,75,38,30.22,30.03,10,0,13,0.00
2013-9-6,69.1,57.7,47.3,52.0,46.9,42.6,95,70,40,30.34,30.22,7,0,8,0.00
2013-9-7,76.1,60.4,43.9,59.0,51.6,43.3,99,76,44,30.23,29.99,4,0,6,0.00
2013-9-8,79.0,67.9,56.7,67.3,59.2,47.5,95,75,55,30.16,29.93,9,0,10,0.00
2013-9-9,74.7,62.5,46.8,62.1,54.2,44.4,93,75,59,30.30,30.16,7,0,7,0.00
2013-9-10,84.9,74.7,65.1,75.7,70.0,61.5,96,86,71,30.25,30.13,6,0,6,0.00
2013-9-11,91.9,80.1,70.2,79.0,74.0,69.3,98,83,62,30.20,30.05,6,0,8,0.00
2013-9-12,85.6,74.8,67.5,76.3,71.2,66.7,98,89,68,30.07,29.78,9,0,12,0.30
2013-9-13,73.8,65.8,55.2,66.9,60.0,50.5,99,83,58,29.96,29.72,10,0,10,0.02
2013-9-14,61.5,54.7,43.2,50.5,47.8,42.1,96,78,63,30.24,29.96,12,0,12,0.00
2013-9-15,70.5,55.2,39.7,55.8,48.5,39.2,98,81,50,30.32,30.17,4,0,7,0.00
2013-9-16,68.9,60.0,54.0,59.7,54.9,48.4,98,84,62,30.33,30.12,7,0,9,0.04
2013-9-17,62.6,52.5,42.4,49.1,43.5,39.7,96,74,47,30.52,30.32,10,1,15,0.00
2013-9-18,68.2,52.7,37.2,51.1,44.7,36.3,99,78,42,30.44,30.28,4,0,4,0.00
2013-9-19,73.2,56.9,40.8,57.7,49.7,40.1,99,80,49,30.29,30.16,5,0,5,0.00
2013-9-20,77.2,61.5,46.6,63.7,55.2,46.0,99,82,55,30.17,30.05,3,0,5,0.00
2013-9-21,76.6,63.8,50.4,66.0,57.7,49.6,99,83,52,30.09,29.75,8,0,11,1.15
2013-9-22,66.2,59.9,49.3,61.0,52.0,43.9,98,77,50,30.01,29.74,9,1,11,1.41
2013-9-23,63.9,53.5,42.3,48.4,44.3,40.5,94,73,54,30.15,30.01,9,1,12,0.00
2013-9-24,70.2,54.3,41.4,51.6,45.9,39.2,94,76,45,30.16,29.99,5,0,6,0.00
2013-9-25,69.6,55.7,44.4,55.8,47.9,42.3,97,78,46,30.06,29.96,5,0,6,0.00
2013-9-26,71.6,57.5,45.3,59.9,53.1,44.8,99,86,61,30.17,30.02,6,0,7,0.00
2013-9-27,69.3,59.2,51.3,56.7,53.2,49.8,98,82,56,30.35,30.17,5,0,7,0.00
2013-9-28,71.2,60.1,49.1,55.8,52.4,47.7,97,78,47,30.40,30.32,7,1,9,0.00
2013-9-29,70.2,56.1,43.9,58.8,51.6,43.3,99,86,61,30.32,30.16,4,0,8,0.00
2013-9-30,72.1,56.5,43.3,58.3,50.5,42.8,99,83,52,30.17,30.06,4,0,5,0.00
2013-10-1,78.3,60.9,47.1,63.7,55.0,46.6,99,83,56,30.12,30.00,5,0,7,0.00
2013-10-2,81.0,64.7,49.8,65.1,58.4,49.3,99,83,55,30.11,30.02,7,0,10,0.00
2013-10-3,78.8,65.9,52.3,64.9,59.7,51.8,99,83,54,30.20,30.10,2,0,3,0.00
2013-10-4,83.5,68.8,56.7,69.6,63.3,56.1,99,85,56,30.15,30.05,4,0,5,0.00
2013-10-5,82.8,71.3,60.8,69.3,65.9,59.7,98,85,62,30.15,30.07,5,0,7,0.01
2013-10-6,74.8,67.2,63.9,69.4,65.5,63.0,98,95,82,30.14,30.06,8,1,8,0.06
2013-10-7,76.5,64.2,54.0,71.4,62.7,48.0,98,95,76,30.09,29.81,12,1,14,0.63
2013-10-8,64.9,53.2,43.9,51.1,47.4,43.3,99,83,53,30.40,30.08,6,0,10,0.00
2013-10-9,60.1,52.7,44.2,50.7,47.1,42.3,96,81,68,30.46,30.34,11,1,12,0.00
2013-10-10,58.6,55.2,51.1,56.8,52.5,47.5,96,91,82,30.35,30.12,11,2,14,0.56
2013-10-11,63.0,60.0,57.2,61.2,58.0,54.7,97,93,88,30.15,30.06,13,2,14,1.26
2013-10-12,70.2,62.9,57.0,59.0,52.6,42.6,90,70,50,30.32,30.13,15,2,18,0.00
2013-10-13,66.2,58.8,48.7,55.4,51.8,47.1,97,78,58,30.44,30.31,11,2,16,0.00
2013-10-14,66.4,53.9,43.0,53.8,49.1,42.4,99,85,59,30.44,30.32,6,0,7,0.00
2013-10-15,70.5,54.4,41.7,57.4,48.2,41.2,99,82,47,30.35,30.19,7,0,7,0.00
2013-10-16,66.2,57.2,45.9,59.5,54.5,43.9,97,91,79,30.19,30.00,3,0,4,0.00
2013-10-17,72.1,64.1,57.0,64.0,61.2,55.9,98,91,73,30.00,29.77,5,0,6,0.05
2013-10-18,64.2,56.5,41.4,62.4,46.7,39.9,95,71,53,30.08,29.78,9,2,13,0.05
2013-10-19,62.4,49.8,37.2,54.1,45.3,36.3,98,86,56,30.08,29.85,6,0,7,0.04
2013-10-20,60.1,50.0,36.7,52.3,40.7,35.4,96,73,43,30.17,29.88,8,1,13,0.04
2013-10-21,64.9,49.5,33.1,46.4,39.5,32.4,98,73,41,30.25,30.06,7,0,9,0.00
2013-10-22,60.8,49.8,39.0,52.3,44.2,34.2,98,82,58,30.06,29.87,5,0,7,0.01
2013-10-23,55.6,44.6,36.1,43.0,37.1,33.4,92,76,58,29.91,29.71,8,0,9,0.00
2013-10-24,50.0,41.8,33.1,36.9,32.5,28.4,93,71,45,30.14,29.88,11,1,13,0.00
2013-10-25,52.0,39.9,28.6,36.3,31.9,27.1,96,75,48,30.35,30.14,12,1,12,0.00
2013-10-26,54.1,40.6,25.9,35.2,30.8,25.2,98,72,43,30.34,30.00,11,1,13,0.00
2013-10-27,55.9,46.1,34.2,37.4,33.6,30.7,88,63,44,30.23,29.98,8,1,12,0.00
2013-10-28,59.5,42.8,27.7,38.8,33.8,26.6,97,74,43,30.40,30.23,7,0,7,0.00
2013-10-29,57.9,45.1,33.8,42.1,37.4,30.7,94,76,51,30.50,30.40,7,0,7,0.00
2013-10-30,59.0,48.1,35.1,52.5,44.9,33.8,96,89,77,30.44,30.27,3,0,4,0.00
2013-10-31,66.0,58.2,47.8,62.1,55.4,46.6,98,91,77,30.31,29.86,8,0,8,0.04
2013-11-1,68.4,61.7,48.9,64.0,57.6,48.0,98,87,65,29.86,29.63,13,1,20,0.29
2013-11-2,66.6,53.8,42.3,51.8,46.0,39.4,98,77,48,29.88,29.71,6,0,8,0.00
2013-11-3,49.5,43.4,32.0,42.6,32.5,20.8,88,67,43,30.56,29.88,12,2,18,0.00
2013-11-4,44.8,34.3,25.9,25.3,21.2,17.1,86,61,34,30.75,30.55,11,1,15,0.00
2013-11-5,56.5,43.0,28.6,42.8,35.6,25.0,92,76,57,30.75,30.57,6,0,8,0.00
2013-11-6,64.0,52.7,41.5,51.3,46.5,39.4,94,81,58,30.59,30.15,8,0,10,0.00
2013-11-7,59.9,52.0,37.0,56.8,48.7,33.8,95,89,70,30.15,29.87,10,1,13,0.11
2013-11-8,47.7,41.1,33.6,35.8,30.0,26.4,80,65,48,30.35,30.06,13,2,17,0.00
2013-11-9,49.6,38.6,24.4,34.3,29.0,23.0,96,71,43,30.41,30.09,7,0,8,0.00
2013-11-10,57.0,45.9,31.5,38.8,32.2,28.2,92,61,39,30.19,29.96,14,3,23,0.00
2013-11-11,52.9,46.1,31.5,36.9,31.6,26.1,82,57,46,30.33,30.06,8,1,12,0.00
2013-11-12,49.8,35.4,22.6,37.4,24.5,16.5,90,65,50,30.42,30.04,11,2,15,0.00
2013-11-13,38.5,30.0,23.2,20.5,16.4,12.9,83,58,41,30.51,30.40,15,2,16,0.00
2013-11-14,52.3,37.1,26.4,24.4,19.5,14.0,77,53,22,30.40,30.29,12,1,15,0.00
2013-11-15,56.1,38.9,26.2,34.3,27.7,23.2,90,68,31,30.35,30.26,3,0,6,0.00
2013-11-16,58.8,47.9,36.7,46.9,42.7,31.6,97,83,61,30.43,30.34,5,0,6,0.05
2013-11-17,64.8,56.0,47.8,58.3,52.7,46.6,97,89,76,30.35,29.84,11,1,12,0.00
2013-11-18,63.5,57.8,46.9,61.0,41.3,28.6,96,58,30,29.92,29.70,17,3,21,0.27
2013-11-19,46.9,40.8,28.2,29.8,25.8,22.1,79,56,46,30.45,29.92,17,3,18,0.00
2013-11-20,44.6,32.9,23.4,23.0,17.9,6.3,76,57,22,30.70,30.45,11,1,15,0.00
2013-11-21,51.4,39.0,22.3,40.8,29.7,16.3,82,70,58,30.70,30.48,8,1,8,0.00
2013-11-22,56.1,50.3,45.5,50.0,46.6,40.6,96,87,77,30.48,30.04,12,1,13,0.02
2013-11-23,51.8,40.1,28.2,47.7,27.4,7.5,87,61,41,30.17,30.04,15,4,22,0.02
2013-11-24,28.2,23.9,20.5,11.8,4.1,1.2,55,42,35,30.53,30.16,18,5,23,0.00
2013-11-25,33.3,26.4,18.3,18.0,13.3,7.2,76,58,44,30.62,30.43,9,2,10,0.00
2013-11-26,41.2,33.7,30.7,40.6,27.3,17.8,98,78,57,30.44,29.77,11,1,11,0.61
2013-11-27,60.6,41.4,30.7,60.3,38.5,21.4,99,90,62,29.92,29.49,20,4,26,2.14
2013-11-28,34.2,29.8,27.0,21.4,17.3,14.0,72,60,46,30.58,29.92,18,4,20,0.00
2013-11-29,38.1,28.3,18.7,26.1,20.1,16.3,96,73,51,30.85,30.57,9,1,11,0.00
2013-11-30,36.9,27.4,15.6,28.2,20.9,12.4,90,77,64,30.85,30.48,9,1,9,0.00
2013-12-1,47.1,36.7,24.3,33.1,29.5,22.8,96,76,53,30.48,30.11,6,0,7,0.00
2013-12-2,50.4,39.4,32.4,36.5,32.4,29.5,91,77,57,30.12,29.97,4,0,4,0.00
2013-12-3,52.3,39.9,29.7,41.0,34.2,28.2,95,81,53,30.10,29.98,6,0,7,0.00
2013-12-4,50.4,41.1,29.7,43.7,37.2,28.4,97,87,72,30.21,30.10,5,0,6,0.00
2013-12-5,56.7,51.2,45.3,56.1,50.3,43.7,99,97,91,30.20,30.01,6,0,6,0.01
2013-12-6,60.4,46.1,35.2,60.1,45.0,34.2,99,96,88,30.25,29.95,11,2,13,0.65
2013-12-7,37.9,32.7,25.7,34.2,29.0,21.4,97,87,73,30.62,30.17,12,1,15,0.57
2013-12-8,28.8,26.1,22.5,26.8,21.7,17.4,96,84,67,30.69,30.43,8,1,10,0.00
2013-12-9,34.7,32.3,27.9,34.2,31.6,26.8,98,97,96,30.44,30.09,10,1,10,0.09
2013-12-10,32.2,29.5,21.7,31.3,27.5,18.0,98,92,77,30.26,30.01,5,0,7,0.02
2013-12-11,30.9,23.6,12.7,20.1,16.7,10.6,94,75,59,30.46,30.26,10,1,14,0.00
2013-12-12,25.3,20.2,12.6,20.1,11.6,6.1,94,70,45,30.48,30.27,11,1,12,0.00
2013-12-13,34.0,24.7,13.8,20.1,14.1,7.2,83,64,49,30.44,30.26,15,1,17,0.00
2013-12-14,28.4,25.3,21.6,27.1,21.8,19.6,96,87,76,30.54,29.81,11,2,15,0.00
2013-12-15,37.8,31.4,25.2,32.7,27.0,21.4,97,84,64,29.96,29.66,18,2,21,0.16
2013-12-16,30.0,23.0,12.9,22.5,12.1,8.8,86,64,46,30.33,29.95,16,3,23,0.00
2013-12-17,26.2,21.4,17.2,23.9,18.6,13.6,94,89,74,30.31,30.05,7,1,8,0.00
2013-12-18,35.6,25.7,12.6,23.4,19.0,10.9,96,77,57,30.30,30.05,17,2,17,0.02
2013-12-19,44.2,29.3,14.2,30.2,23.0,12.4,95,79,55,30.30,30.14,7,0,8,0.11
2013-12-20,52.3,39.0,26.8,34.7,31.1,25.3,95,75,48,30.20,30.06,5,0,6,0.10
2013-12-21,62.6,47.4,33.6,56.3,43.5,32.0,98,87,71,30.11,29.98,7,0,7,0.00
2013-12-22,67.1,63.0,59.0,63.1,59.4,55.8,94,88,82,30.03,29.89,12,3,16,0.04
2013-12-23,58.6,53.3,40.5,58.1,51.3,33.1,98,93,75,30.23,29.98,13,-2,13,0.79
2013-12-24,37.0,31.7,24.1,25.5,21.7,14.9,81,66,56,30.49,30.21,15,-26,19,0.00
2013-12-25,27.3,24.0,16.3,18.0,12.3,7.3,77,61,49,30.64,30.48,8,-8,9,0.00
2013-12-26,35.6,30.2,22.1,28.9,23.8,16.3,90,77,67,30.51,30.28,12,-8,13,0.00
2013-12-27,41.4,31.4,22.1,24.4,21.7,19.2,91,69,45,30.48,30.38,15,-8,15,0.00
2013-12-28,55.6,43.4,21.0,30.7,27.6,19.0,92,56,37,30.39,30.18,13,-17,15,0.00
2013-12-29,42.1,39.6,34.9,40.3,35.9,27.7,97,87,66,30.18,29.55,9,-25,10,1.00
2013-12-30,43.2,34.1,22.6,38.3,25.4,13.8,90,70,61,30.28,29.83,15,-31,17,0.00
2013-12-31,32.4,26.8,19.2,26.6,17.3,11.7,85,67,53,30.41,30.15,15,-12,16,0.00
2014-1-1,34.2,29.1,21.0,22.6,19.9,11.5,85,68,61,30.51,30.30,6,-9,7,0.00
2014-1-2,29.1,23.9,15.4,23.7,20.9,12.9,94,88,74,30.30,29.75,15,-16,15,0.00